Flight Track Log - Related Links

Times and Time Zones

All times are in EDT time to prevent confusion due to time zone crossing. See the KAP46 flight status page for this flight to view local times or setup timezone preferences in your user account.

Time Position Orientation Groundspeed Altitude Reporting Facility
EDT Latitude Longitude Course Direction KTS MPH feet Rate Location/Type
Sat 10:47:05 AM 42.7319 -73.8081 264° West 108 124 1,000  Level Boston Center
Sat 10:48:30 AM 42.7294 -73.8392 264° West 130 150 1,800 575 Climbing Boston Center
Sat 10:49:31 AM 42.7647 -73.8400 359° North 128 147 2,400 595 Climbing Boston Center
Sat 10:50:31 AM 42.7981 -73.8464 352° North 125 144 3,000 595 Climbing Boston Center
Sat 10:51:32 AM 42.8356 -73.8558 350° North 134 154 3,600 541 Climbing Boston Center
Sat 10:52:33 AM 42.8708 -73.8678 346° North 130 150 4,100 595 Climbing Boston Center
Sat 10:53:33 AM 42.9061 -73.8717 355° North 130 150 4,800 595 Climbing Boston Center
Sat 10:54:34 AM 42.9394 -73.8864 342° North 132 152 5,300 492 Climbing Boston Center
Sat 10:55:35 AM 42.9767 -73.8903 356° North 134 154 5,800 541 Climbing Boston Center
Sat 10:56:36 AM 43.0164 -73.8969 353° North 132 152 6,400 545 Climbing Boston Center
Sat 10:57:36 AM 43.0536 -73.9064 349° North 137 158 6,900 347 Climbing Boston Center
Sat 10:58:37 AM 43.0931 -73.9186 347° North 154 177 7,100 98 Climbing Boston Center
Sat 10:59:38 AM 43.1411 -73.9225 357° North 175 201 7,100 -125 Level Boston Center
Sat 11:00:13 AM 43.1681 -73.9261 354° North 177 204 6,900 -126 Descending Boston Center
Sat 11:01:13 AM 43.2139 -73.9328 354° North 178 205 6,900 45 Level Boston Center
Sat 11:02:25 AM 43.2658 -73.9514 345° North 160 184 7,000 45 Climbing Boston Center
Sat 11:03:25 AM 43.3072 -73.9636 348° North 160 184 7,000 50 Level Boston Center
Sat 11:04:25 AM 43.3592 -73.9678 357° North 160 184 7,100 -50 Climbing Boston Center
Sat 11:05:25 AM 43.4008 -73.9775 350° North 160 184 6,900 -50 Descending Boston Center
Sat 11:06:25 AM 43.4444 -73.9872 351° North 160 184 7,000 50 Climbing Boston Center
Sat 11:07:25 AM 43.4881 -73.9997 348° North 160 184 7,000  Level Boston Center
Sat 11:08:25 AM 43.5314 -74.0236 338° Northwest 160 184 7,000  Level Boston Center
Sat 11:09:25 AM 43.5728 -74.0450 339° North 160 184 7,000  Level Boston Center
Sat 11:10:25 AM 43.6142 -74.0661 340° North 160 184 7,000  Level Boston Center
Sat 11:11:25 AM 43.6556 -74.0900 337° Northwest 160 184 7,000  Level Boston Center
Sat 11:12:25 AM 43.7033 -74.1117 342° North 160 184 7,000  Level Boston Center
Sat 11:13:25 AM 43.7425 -74.1328 339° North 155 178 7,000 -50 Level Boston Center
Sat 11:14:25 AM 43.7858 -74.1569 338° Northwest 155 178 6,900  Descending Boston Center
Sat 11:15:25 AM 43.8208 -74.1867 329° Northwest 155 178 7,000 50 Climbing Boston Center
Sat 11:16:25 AM 43.8622 -74.2139 335° Northwest 155 178 7,000  Level Boston Center
Sat 11:17:25 AM 43.9014 -74.2408 334° Northwest 155 178 7,000 -50 Level Boston Center
Sat 11:18:25 AM 43.9406 -74.2594 341° North 155 178 6,900  Descending Boston Center
Sat 11:19:25 AM 43.9819 -74.2867 335° Northwest 155 178 7,000  Climbing Boston Center
Sat 11:20:25 AM 44.0231 -74.3111 337° Northwest 155 178 6,900 -50 Descending Boston Center
Sat 11:21:25 AM 44.0625 -74.3325 339° North 155 178 6,900 50 Level Boston Center
Sat 11:22:25 AM 44.0994 -74.3539 337° Northwest 155 178 7,000 50 Climbing Boston Center
Sat 11:23:25 AM 44.1408 -74.3756 339° North 155 178 7,000  Level Boston Center
Sat 11:24:25 AM 44.1800 -74.4000 336° Northwest 155 178 7,000  Level Boston Center
Sat 11:25:25 AM 44.2214 -74.4244 337° Northwest 155 178 7,000  Level Boston Center
Sat 11:26:25 AM 44.2606 -74.4489 336° Northwest 155 178 7,000  Level Boston Center
Sat 11:27:25 AM 44.2997 -74.4706 338° Northwest 155 178 7,000  Level Boston Center
Sat 11:28:25 AM 44.3408 -74.4922 339° North 155 178 7,000  Level Boston Center
Sat 11:29:25 AM 44.3800 -74.5169 336° Northwest 155 178 7,000  Level Boston Center
Sat 11:30:25 AM 44.4194 -74.5358 341° North 155 178 7,000  Level Boston Center
Sat 11:31:25 AM 44.4606 -74.5633 334° Northwest 155 178 7,000  Level Boston Center
Sat 11:32:37 AM 44.5017 -74.5881 337° Northwest 155 178 7,000  Level Boston Center
Sat 11:33:37 AM 44.5492 -74.6161 337° Northwest 155 178 7,000 -200 Level Boston Center
Sat 11:34:37 AM 44.5903 -74.6408 337° Northwest 155 178 6,600 -400 Descending Boston Center
Sat 11:35:37 AM 44.6358 -74.6631 341° North 165 190 6,200 -550 Descending Boston Center
Sat 11:36:37 AM 44.6853 -74.6911 338° Northwest 171 197 5,500 -700 Descending Boston Center

Login

Don't have an account? Register now (free) for customized features, flight alerts, and more!